Ludlow, California
Current Conditions -  °F | °C
As of 9:56 PM on Saturday 25 Oct 2014 (Local Time) from KNXP Reporting Station
Clear Clear  
Wind Chill: 69°   Ceiling: Unl
Heat Index: 69°   Visibility: 10mi
Dew Point: 43°   Wind: 6mph
Humidity: 39%   Direction: 320°NW
Pressure: 30.07"   Gusts: NA
Location:  34.72°N, 116.16°W
Report Text: KNXP 260456Z AUTO 32005KT 10SM CLR 21/06 A3007 RMK AO2 SLP150 T02060061
Loading
Personal Weather Stations






























Interactive Weather Map
Tropical Storm Tracking
New forecast layout! Learn more

10-Day Weather Forecast

Advertisements
Track Severe Weather on mobile